Butte Falls, Oregon
Current Conditions -  °F | °C
As of 4:53 AM on Tuesday 21 Oct 2014 (Local Time) from KMFR Reporting Station
Overcast Overcast  
Wind Chill: 48°   Ceiling: 6500
Heat Index: 48°   Visibility: 10mi
Dew Point: 45°   Wind: 0mph
Humidity: 89%   Direction: NA
Pressure: 30.04"   Gusts: NA
Location:  42.54°N, 122.57°W
Report Text: KMFR 211153Z AUTO 00000KT 10SM BKN065 OVC085 09/07 A3004 RMK AO2 SLP172 70038 T00890072 10106 20083 53007
Loading
Personal Weather Stations






























Interactive Weather Map
Tropical Storm Tracking
New forecast layout! Learn more

10-Day Weather Forecast

Advertisements
Track Severe Weather on mobile